Time;durP1;ratioP1;P1;durP2;ratioP2;P2;SDS_P1;SDS_P2;PMS_P1;PMS_P2;Temp;Humidity;BMP_temperature;BMP_pressure;BME280_temperature;BME280_humidity;BME280_pressure;Samples;Min_cycle;Max_cycle;Signal;HPM_P1;HPM_P2
2023/05/04 05:00:38;;;;;;;11.30;10.30;;;11.40;97.20;;;;;;1734459;28;20200;-65
2023/05/04 05:01:28;;;;;;;13.43;11.90;;;11.40;97.20;;;;;;1734698;28;20211;-65
2023/05/04 05:02:21;;;;;;;12.20;11.20;;;11.50;97.20;;;;;;1734884;28;20187;-65
2023/05/04 05:03:12;;;;;;;11.75;10.75;;;11.50;97.20;;;;;;1734754;28;20206;-65
2023/05/04 05:04:04;;;;;;;12.05;10.90;;;11.50;97.20;;;;;;1734707;28;20199;-65
2023/05/04 05:04:55;;;;;;;13.50;12.10;;;11.50;97.20;;;;;;1734825;28;20207;-66
2023/05/04 05:05:47;;;;;;;11.98;10.88;;;11.60;97.20;;;;;;1734754;28;20211;-65
2023/05/04 05:06:37;;;;;;;13.75;12.32;;;11.60;97.20;;;;;;1734357;28;20199;-65
2023/05/04 05:07:29;;;;;;;13.97;12.43;;;11.60;97.20;;;;;;1734529;28;20663;-65
2023/05/04 05:08:20;;;;;;;13.43;12.07;;;11.60;97.20;;;;;;1733869;28;20667;-65
2023/05/04 05:09:12;;;;;;;12.88;11.60;;;11.60;97.20;;;;;;1734816;28;20571;-65
2023/05/04 05:10:04;;;;;;;13.60;12.40;;;11.60;97.20;;;;;;1734756;28;20639;-65
2023/05/04 05:10:56;;;;;;;13.18;11.98;;;11.60;97.20;;;;;;1734586;28;20234;-65
2023/05/04 05:11:46;;;;;;;14.00;12.38;;;11.60;97.20;;;;;;1734648;28;20237;-65
2023/05/04 05:12:38;;;;;;;13.00;11.90;;;11.70;97.20;;;;;;1730780;28;20223;-64
2023/05/04 05:13:29;;;;;;;15.02;11.90;;;11.70;97.20;;;;;;1727659;28;20205;-64
2023/05/04 05:14:20;;;;;;;14.40;12.90;;;11.70;97.20;;;;;;1727694;28;20228;-64
2023/05/04 05:15:11;;;;;;;13.10;11.75;;;11.70;97.20;;;;;;1725995;28;20224;-64
2023/05/04 05:16:05;;;;;;;15.37;12.17;;;11.80;97.20;;;;;;1727363;28;20210;-64
2023/05/04 05:16:56;;;;;;;13.95;12.75;;;11.80;97.20;;;;;;1726503;28;20517;-65
2023/05/04 05:17:48;;;;;;;13.87;12.60;;;11.80;97.20;;;;;;1727214;28;20201;-64
2023/05/04 05:18:38;;;;;;;14.68;13.27;;;11.80;97.20;;;;;;1727144;28;20200;-65
2023/05/04 05:19:33;;;;;;;13.07;11.80;;;11.80;97.20;;;;;;1727312;28;20203;-64
2023/05/04 05:20:24;;;;;;;14.02;12.60;;;11.80;97.20;;;;;;1727246;28;20279;-64
2023/05/04 05:21:15;;;;;;;13.85;12.65;;;11.90;97.20;;;;;;1727361;28;20193;-65
2023/05/04 05:22:06;;;;;;;13.88;12.68;;;11.90;97.20;;;;;;1727377;28;20211;-64
2023/05/04 05:22:58;;;;;;;13.33;12.00;;;11.90;97.20;;;;;;1727452;28;20201;-63
2023/05/04 05:23:49;;;;;;;13.95;12.65;;;11.90;97.20;;;;;;1727214;28;20235;-64
2023/05/04 05:24:41;;;;;;;14.93;13.53;;;11.90;97.20;;;;;;1727245;28;20229;-63
2023/05/04 05:25:32;;;;;;;14.48;13.00;;;12.00;97.20;;;;;;1727305;28;20292;-65
2023/05/04 05:26:24;;;;;;;13.43;12.13;;;12.00;97.20;;;;;;1726629;28;20341;-66
2023/05/04 05:27:15;;;;;;;14.27;12.88;;;12.00;97.20;;;;;;1727318;28;20286;-64
2023/05/04 05:28:07;;;;;;;15.43;13.00;;;12.10;97.20;;;;;;1728270;28;20287;-64
2023/05/04 05:28:58;;;;;;;13.98;12.82;;;12.10;97.20;;;;;;1734165;28;20238;-65
2023/05/04 05:29:50;;;;;;;15.93;13.43;;;12.10;97.20;;;;;;1734054;28;20199;-65
2023/05/04 05:30:40;;;;;;;14.02;12.55;;;12.20;97.20;;;;;;1735715;28;20275;-63
2023/05/04 05:31:33;;;;;;;13.77;12.57;;;12.20;97.20;;;;;;1738873;28;20195;-65
2023/05/04 05:32:24;;;;;;;14.30;13.07;;;12.20;97.20;;;;;;1739001;28;20211;-64
2023/05/04 05:33:16;;;;;;;14.67;13.33;;;12.20;97.20;;;;;;1736836;28;20202;-65
2023/05/04 05:34:07;;;;;;;14.43;13.13;;;12.20;97.20;;;;;;1739721;28;20203;-66
2023/05/04 05:34:58;;;;;;;14.33;13.00;;;12.30;97.20;;;;;;1736213;28;20195;-65
2023/05/04 05:35:49;;;;;;;13.48;12.27;;;12.30;97.20;;;;;;1734585;28;20200;-66
2023/05/04 05:36:41;;;;;;;14.60;13.30;;;12.30;97.20;;;;;;1739956;28;20201;-64
2023/05/04 05:37:31;;;;;;;14.93;13.63;;;12.30;97.20;;;;;;1740847;28;20227;-65
2023/05/04 05:38:23;;;;;;;13.70;12.50;;;12.30;97.20;;;;;;1741000;28;20203;-65
2023/05/04 05:39:14;;;;;;;15.45;14.05;;;12.30;97.20;;;;;;1738413;28;20242;-65
2023/05/04 05:40:07;;;;;;;13.90;12.60;;;12.40;97.20;;;;;;1733952;28;20515;-65
2023/05/04 05:40:58;;;;;;;14.82;13.52;;;12.40;97.20;;;;;;1737720;28;20222;-64
2023/05/04 05:41:50;;;;;;;15.63;14.23;;;12.40;97.20;;;;;;1734566;28;20212;-65
2023/05/04 05:42:41;;;;;;;14.65;13.25;;;12.40;97.20;;;;;;1740713;28;20207;-65
2023/05/04 05:43:33;;;;;;;14.80;13.52;;;12.50;97.20;;;;;;1740752;28;20659;-64
2023/05/04 05:44:24;;;;;;;15.23;13.73;;;12.50;97.20;;;;;;1740955;28;20202;-64
2023/05/04 05:45:15;;;;;;;14.70;13.40;;;12.50;97.20;;;;;;1740975;28;20194;-65
2023/05/04 05:46:06;;;;;;;15.20;13.75;;;12.50;97.20;;;;;;1740850;28;20229;-64
2023/05/04 05:46:59;;;;;;;14.27;12.97;;;12.50;97.20;;;;;;1740172;28;20199;-65
2023/05/04 05:47:50;;;;;;;15.43;14.02;;;12.50;97.20;;;;;;1740651;28;20214;-65
2023/05/04 05:48:42;;;;;;;15.80;14.32;;;12.60;97.20;;;;;;1740708;28;20611;-64
2023/05/04 05:49:33;;;;;;;16.08;14.55;;;12.60;97.20;;;;;;1740754;28;20209;-65
2023/05/04 05:50:25;;;;;;;15.35;13.85;;;12.60;97.20;;;;;;1735887;28;20751;-65
2023/05/04 05:51:16;;;;;;;16.73;15.15;;;12.70;97.20;;;;;;1734976;28;20238;-64
2023/05/04 05:52:07;;;;;;;14.90;13.23;;;12.70;97.20;;;;;;1734665;28;20200;-65
2023/05/04 05:52:58;;;;;;;14.98;13.57;;;12.70;97.20;;;;;;1737407;28;20199;-65
2023/05/04 05:53:50;;;;;;;15.80;14.30;;;12.80;97.20;;;;;;1733692;28;20200;-65
2023/05/04 05:54:41;;;;;;;15.25;13.82;;;12.80;97.20;;;;;;1733324;28;20714;-64
2023/05/04 05:55:32;;;;;;;14.90;13.30;;;12.80;97.20;;;;;;1733869;28;20664;-64
2023/05/04 05:56:23;;;;;;;15.05;13.48;;;12.90;97.20;;;;;;1733194;28;20493;-65
2023/05/04 05:57:15;;;;;;;15.53;13.90;;;12.90;97.20;;;;;;1733640;28;20393;-65
2023/05/04 05:58:06;;;;;;;14.43;13.18;;;12.90;97.20;;;;;;1733794;28;20211;-67
2023/05/04 05:58:57;;;;;;;17.23;15.63;;;12.90;97.20;;;;;;1733756;28;20204;-63
2023/05/04 05:59:48;;;;;;;15.20;13.80;;;12.90;97.20;;;;;;1733597;28;20210;-65
2023/05/04 06:00:40;;;;;;;15.30;13.87;;;13.00;97.20;;;;;;1734605;28;20234;-64
2023/05/04 06:01:31;;;;;;;18.35;14.30;;;13.00;97.20;;;;;;1737078;28;20446;-65
2023/05/04 06:02:24;;;;;;;16.00;14.40;;;13.00;97.20;;;;;;1738578;28;20199;-64
2023/05/04 06:03:14;;;;;;;15.55;13.98;;;13.10;97.20;;;;;;1740633;28;20961;-64
2023/05/04 06:04:06;;;;;;;16.30;14.77;;;13.10;97.20;;;;;;1740826;28;20666;-64
2023/05/04 06:04:57;;;;;;;16.10;14.48;;;13.10;97.20;;;;;;1740714;28;20207;-64
2023/05/04 06:05:49;;;;;;;16.80;15.00;;;13.20;97.20;;;;;;1740596;28;20195;-64
2023/05/04 06:06:39;;;;;;;16.70;15.00;;;13.20;97.20;;;;;;1739980;28;20227;-65
2023/05/04 06:07:31;;;;;;;16.07;14.23;;;13.20;97.20;;;;;;1740726;28;20195;-65
2023/05/04 06:08:22;;;;;;;17.20;14.75;;;13.20;97.20;;;;;;1740895;28;20572;-65
2023/05/04 06:09:13;;;;;;;16.43;14.90;;;13.20;97.20;;;;;;1736302;28;20537;-64
2023/05/04 06:10:05;;;;;;;16.40;14.68;;;13.20;97.20;;;;;;1733606;28;20207;-65
2023/05/04 06:10:57;;;;;;;16.20;14.60;;;13.20;97.20;;;;;;1736898;28;20294;-64
2023/05/04 06:11:47;;;;;;;16.15;14.48;;;13.20;97.20;;;;;;1734543;28;20215;-63
2023/05/04 06:12:39;;;;;;;15.83;14.20;;;13.20;97.20;;;;;;1740681;28;20193;-65
2023/05/04 06:13:30;;;;;;;15.35;13.95;;;13.20;97.20;;;;;;1740764;28;20298;-64
2023/05/04 06:14:21;;;;;;;17.67;15.97;;;13.20;97.20;;;;;;1740731;28;20195;-65
2023/05/04 06:15:13;;;;;;;16.48;14.88;;;13.20;97.20;;;;;;1740658;28;20210;-64
2023/05/04 06:16:05;;;;;;;17.40;14.70;;;13.20;97.20;;;;;;1740883;28;20205;-63
2023/05/04 06:16:55;;;;;;;16.25;14.65;;;13.20;97.20;;;;;;1739870;28;20670;-65
2023/05/04 06:17:49;;;;;;;16.43;14.77;;;13.20;97.20;;;;;;1740574;28;20663;-64
2023/05/04 06:18:40;;;;;;;16.48;14.48;;;13.30;97.20;;;;;;1740728;28;20204;-64
2023/05/04 06:19:34;;;;;;;15.17;13.77;;;13.30;97.20;;;;;;1740476;28;20191;-66
2023/05/04 06:20:25;;;;;;;15.95;14.40;;;13.30;97.20;;;;;;1735702;28;20759;-66
2023/05/04 06:21:16;;;;;;;15.53;14.03;;;13.40;97.20;;;;;;1738516;28;20363;-63
2023/05/04 06:22:07;;;;;;;16.05;14.57;;;13.40;97.20;;;;;;1734598;28;20235;-63
2023/05/04 06:22:59;;;;;;;17.10;15.40;;;13.50;97.20;;;;;;1740607;28;20202;-64
2023/05/04 06:23:49;;;;;;;15.13;13.77;;;13.50;97.20;;;;;;1740489;28;20203;-64
2023/05/04 06:24:41;;;;;;;16.20;14.80;;;13.50;97.20;;;;;;1740751;28;20205;-64
2023/05/04 06:25:32;;;;;;;15.75;14.32;;;13.60;97.20;;;;;;1734821;28;20562;-64
2023/05/04 06:26:24;;;;;;;17.00;15.40;;;13.60;97.20;;;;;;1732897;28;20241;-65
2023/05/04 06:27:15;;;;;;;15.75;14.25;;;13.60;97.20;;;;;;1733837;28;20211;-65
2023/05/04 06:28:07;;;;;;;15.57;14.10;;;13.70;97.20;;;;;;1733935;28;20200;-64
2023/05/04 06:28:57;;;;;;;15.95;14.32;;;13.70;97.20;;;;;;1733813;28;20203;-64
2023/05/04 06:29:49;;;;;;;14.83;13.53;;;13.80;97.20;;;;;;1733661;28;20204;-62
2023/05/04 06:30:40;;;;;;;16.88;15.20;;;13.80;97.20;;;;;;1734601;28;20227;-63
2023/05/04 06:31:32;;;;;;;15.47;14.07;;;13.80;97.20;;;;;;1736960;28;20214;-66
2023/05/04 06:32:23;;;;;;;15.15;13.60;;;13.90;97.20;;;;;;1738832;28;20456;-66
2023/05/04 06:33:16;;;;;;;16.20;14.80;;;13.90;97.20;;;;;;1740830;28;20233;-64
2023/05/04 06:34:07;;;;;;;16.83;15.23;;;14.00;97.20;;;;;;1740633;28;20446;-65
2023/05/04 06:34:59;;;;;;;14.83;13.60;;;14.00;97.20;;;;;;1740508;28;20290;-63
2023/05/04 06:35:50;;;;;;;15.40;13.90;;;14.00;97.20;;;;;;1740554;28;20211;-65
2023/05/04 06:36:42;;;;;;;16.08;14.63;;;14.10;97.20;;;;;;1739932;28;20623;-66
2023/05/04 06:37:33;;;;;;;16.15;14.75;;;14.10;97.20;;;;;;1740473;28;20213;-64
2023/05/04 06:38:25;;;;;;;16.20;13.90;;;14.10;97.20;;;;;;1740709;28;20627;-65
2023/05/04 06:39:15;;;;;;;15.80;14.38;;;14.20;97.20;;;;;;1740505;28;20226;-65
2023/05/04 06:40:08;;;;;;;16.47;14.93;;;14.20;97.20;;;;;;1739591;28;20205;-62
2023/05/04 06:40:59;;;;;;;16.42;14.93;;;14.20;97.20;;;;;;1736907;28;20254;-65
2023/05/04 06:41:53;;;;;;;16.30;14.83;;;14.30;97.20;;;;;;1733537;28;20203;-64
2023/05/04 06:42:44;;;;;;;17.20;15.60;;;14.30;97.20;;;;;;1740543;28;20483;-65
2023/05/04 06:43:36;;;;;;;16.08;14.48;;;14.30;97.20;;;;;;1740503;28;20742;-64
2023/05/04 06:44:27;;;;;;;16.60;14.65;;;14.30;97.20;;;;;;1740666;28;20203;-64
2023/05/04 06:45:19;;;;;;;16.65;15.05;;;14.40;97.20;;;;;;1740598;28;20195;-64
2023/05/04 06:46:09;;;;;;;16.10;14.40;;;14.40;97.20;;;;;;1740554;28;20210;-66
2023/05/04 06:47:01;;;;;;;15.23;13.93;;;14.40;97.20;;;;;;1739797;28;20209;-64
2023/05/04 06:47:52;;;;;;;16.17;14.77;;;14.40;97.20;;;;;;1740563;28;20199;-65
2023/05/04 06:48:45;;;;;;;16.07;14.57;;;14.50;97.20;;;;;;1740711;28;20556;-64
2023/05/04 06:49:36;;;;;;;16.92;15.27;;;14.50;97.20;;;;;;1740584;28;20445;-65
2023/05/04 06:50:28;;;;;;;16.13;14.63;;;14.50;97.20;;;;;;1735428;28;20208;-64
2023/05/04 06:51:19;;;;;;;15.25;13.85;;;14.50;97.20;;;;;;1739660;28;20613;-66
2023/05/04 06:52:11;;;;;;;15.57;14.18;;;14.60;97.20;;;;;;1736652;28;20191;-65
2023/05/04 06:53:03;;;;;;;15.52;14.07;;;14.60;97.20;;;;;;1740343;28;20207;-64
2023/05/04 06:53:54;;;;;;;15.95;14.35;;;14.60;97.20;;;;;;1740422;28;20294;-65
2023/05/04 06:54:45;;;;;;;14.80;13.40;;;14.70;97.20;;;;;;1740476;28;20203;-64
2023/05/04 06:55:37;;;;;;;14.32;12.88;;;14.70;97.20;;;;;;1740755;28;20689;-64
2023/05/04 06:56:28;;;;;;;14.60;12.85;;;14.70;97.20;;;;;;1739756;28;20776;-64
2023/05/04 06:57:20;;;;;;;14.50;13.20;;;14.80;97.20;;;;;;1734673;28;20192;-64
2023/05/04 06:58:11;;;;;;;17.30;13.75;;;14.80;97.20;;;;;;1733538;28;20208;-64
2023/05/04 06:59:04;;;;;;;15.90;14.30;;;14.90;97.20;;;;;;1733432;28;20204;-65
2023/05/04 06:59:55;;;;;;;14.88;13.57;;;14.90;97.20;;;;;;1733749;28;20199;-64
2023/05/04 07:00:47;;;;;;;15.60;14.20;;;15.00;97.20;;;;;;1733193;28;20258;-68
2023/05/04 07:01:38;;;;;;;14.73;13.43;;;15.00;97.20;;;;;;1740936;28;20584;-64
2023/05/04 07:02:29;;;;;;;15.27;13.80;;;15.00;97.20;;;;;;1740288;28;20274;-65
2023/05/04 07:03:20;;;;;;;15.02;13.52;;;15.00;97.20;;;;;;1740348;28;20199;-66
2023/05/04 07:04:15;;;;;;;15.10;13.60;;;15.00;97.20;;;;;;1740256;28;20214;-64
2023/05/04 07:05:06;;;;;;;19.95;13.95;;;15.10;97.20;;;;;;1726473;28;20248;-64
2023/05/04 07:05:58;;;;;;;15.13;13.50;;;15.10;97.20;;;;;;1725454;28;20203;-64
2023/05/04 07:06:49;;;;;;;14.32;12.85;;;15.10;97.20;;;;;;1724623;28;20232;-66
2023/05/04 07:07:40;;;;;;;15.17;13.77;;;15.10;97.20;;;;;;1724942;28;20197;-64
2023/05/04 07:08:31;;;;;;;14.90;13.35;;;15.10;97.20;;;;;;1724724;28;20284;-64
2023/05/04 07:09:23;;;;;;;14.93;13.63;;;15.10;97.20;;;;;;1724155;28;20205;-65
2023/05/04 07:10:14;;;;;;;14.93;13.23;;;15.20;97.20;;;;;;1725165;28;20254;-63
2023/05/04 07:11:06;;;;;;;14.60;13.30;;;15.20;97.20;;;;;;1726827;28;20470;-65
2023/05/04 07:11:57;;;;;;;14.40;13.10;;;15.20;97.20;;;;;;1727012;28;20205;-65
2023/05/04 07:12:48;;;;;;;14.43;13.02;;;15.30;97.20;;;;;;1726946;28;20457;-64
2023/05/04 07:13:40;;;;;;;14.10;12.70;;;15.20;97.20;;;;;;1733217;28;20656;-65
2023/05/04 07:14:30;;;;;;;15.38;13.90;;;15.30;97.20;;;;;;1733293;28;20207;-65
2023/05/04 07:15:22;;;;;;;13.93;12.53;;;15.30;97.20;;;;;;1732985;28;20194;-65
2023/05/04 07:16:13;;;;;;;13.80;12.60;;;15.40;97.20;;;;;;1725838;28;20703;-65
2023/05/04 07:17:05;;;;;;;15.50;13.80;;;15.40;97.20;;;;;;1726051;28;20594;-64
2023/05/04 07:17:56;;;;;;;13.90;12.55;;;15.50;97.20;;;;;;1730386;28;20485;-64
2023/05/04 07:18:48;;;;;;;15.85;14.25;;;15.60;97.20;;;;;;1733455;28;20527;-65
2023/05/04 07:19:40;;;;;;;15.15;13.65;;;15.60;97.20;;;;;;1733324;28;20234;-64
2023/05/04 07:20:31;;;;;;;15.13;13.77;;;15.70;97.20;;;;;;1733115;28;20235;-66
2023/05/04 07:21:22;;;;;;;14.48;12.98;;;15.70;97.20;;;;;;1733038;28;20207;-65
2023/05/04 07:22:14;;;;;;;15.67;14.23;;;15.70;97.20;;;;;;1733033;28;20198;-65
2023/05/04 07:23:04;;;;;;;15.40;14.00;;;15.80;97.20;;;;;;1733460;28;20676;-67
2023/05/04 07:23:56;;;;;;;14.90;13.50;;;15.80;97.20;;;;;;1733276;28;20546;-65
2023/05/04 07:24:47;;;;;;;15.48;13.98;;;15.90;97.20;;;;;;1733389;28;20208;-65
2023/05/04 07:25:39;;;;;;;14.13;12.90;;;15.90;97.20;;;;;;1733248;28;20210;-65
2023/05/04 07:26:29;;;;;;;14.75;13.30;;;15.90;97.20;;;;;;1732896;28;20249;-65
2023/05/04 07:27:21;;;;;;;13.90;12.70;;;16.00;97.20;;;;;;1733204;28;20192;-65
2023/05/04 07:28:12;;;;;;;13.63;12.25;;;16.00;97.20;;;;;;1733321;28;20204;-65
2023/05/04 07:29:03;;;;;;;14.07;12.70;;;16.10;97.20;;;;;;1733352;28;20204;-65
2023/05/04 07:29:55;;;;;;;14.95;12.95;;;16.10;97.20;;;;;;1733274;28;20203;-65
2023/05/04 07:30:46;;;;;;;13.52;12.23;;;16.20;97.20;;;;;;1733107;28;20638;-64
2023/05/04 07:31:37;;;;;;;14.50;13.18;;;16.20;97.20;;;;;;1734089;28;20200;-65
2023/05/04 07:32:29;;;;;;;14.83;13.43;;;16.20;97.20;;;;;;1735248;28;20200;-63
2023/05/04 07:33:19;;;;;;;14.88;12.63;;;16.30;97.20;;;;;;1735330;28;20199;-63
2023/05/04 07:34:11;;;;;;;15.10;13.50;;;16.30;97.20;;;;;;1735359;28;20196;-64
2023/05/04 07:35:04;;;;;;;16.90;13.88;;;16.40;97.20;;;;;;1735246;28;20446;-64
2023/05/04 07:35:59;;;;;;;16.45;13.10;;;16.40;97.20;;;;;;1735350;28;20805;-64
2023/05/04 07:36:50;;;;;;;14.07;12.77;;;16.50;97.20;;;;;;1734921;28;20215;-65
2023/05/04 07:37:42;;;;;;;13.20;12.00;;;16.50;97.20;;;;;;1735434;28;20889;-64
2023/05/04 07:38:33;;;;;;;13.98;12.68;;;16.60;97.20;;;;;;1735277;28;20690;-64
2023/05/04 07:39:24;;;;;;;12.20;11.00;;;16.60;97.20;;;;;;1735299;28;20207;-65
2023/05/04 07:40:15;;;;;;;13.68;12.30;;;16.70;97.20;;;;;;1735150;28;20573;-65
2023/05/04 07:41:07;;;;;;;14.63;13.13;;;16.80;97.20;;;;;;1735236;28;20660;-63
2023/05/04 07:41:58;;;;;;;13.38;12.18;;;16.80;97.20;;;;;;1735293;28;20204;-64
2023/05/04 07:42:50;;;;;;;13.48;12.35;;;16.90;97.20;;;;;;1735418;28;20196;-64
2023/05/04 07:43:40;;;;;;;13.10;11.80;;;16.90;97.20;;;;;;1735304;28;20236;-64
2023/05/04 07:44:32;;;;;;;12.37;11.27;;;17.00;97.20;;;;;;1735195;28;20203;-66
2023/05/04 07:45:23;;;;;;;13.50;12.18;;;17.00;97.20;;;;;;1735094;28;20215;-64
2023/05/04 07:46:15;;;;;;;12.70;11.50;;;17.10;97.20;;;;;;1731288;28;20208;-64
2023/05/04 07:47:06;;;;;;;12.95;11.65;;;17.10;97.20;;;;;;1735298;28;20663;-65
2023/05/04 07:47:58;;;;;;;12.77;11.68;;;17.20;97.20;;;;;;1735098;28;20741;-64
2023/05/04 07:48:48;;;;;;;15.27;11.18;;;17.30;97.20;;;;;;1735232;28;20235;-64
2023/05/04 07:49:40;;;;;;;13.63;11.47;;;17.40;97.20;;;;;;1735425;28;20200;-64
2023/05/04 07:50:33;;;;;;;11.45;10.45;;;17.50;97.20;;;;;;1735069;28;20715;-63
2023/05/04 07:51:25;;;;;;;12.48;11.45;;;17.60;97.20;;;;;;1735311;28;20620;-65
2023/05/04 07:52:16;;;;;;;12.55;11.40;;;17.70;97.20;;;;;;1735193;28;20235;-65
2023/05/04 07:53:07;;;;;;;12.33;11.07;;;17.80;97.20;;;;;;1735233;28;20203;-64
2023/05/04 07:53:58;;;;;;;12.45;11.35;;;17.90;97.20;;;;;;1735270;28;20208;-64
2023/05/04 07:54:52;;;;;;;11.60;10.40;;;18.00;97.20;;;;;;1735143;28;20287;-64
2023/05/04 07:55:43;;;;;;;12.00;11.00;;;18.10;97.20;;;;;;1735166;28;20454;-64
2023/05/04 07:56:34;;;;;;;11.10;10.00;;;18.20;97.20;;;;;;1734735;28;20200;-64
2023/05/04 07:57:26;;;;;;;14.40;13.00;;;18.20;97.20;;;;;;1735076;28;20200;-64
2023/05/04 07:58:16;;;;;;;13.43;12.23;;;18.30;97.20;;;;;;1735282;28;20231;-64
2023/05/04 07:59:08;;;;;;;13.20;11.90;;;18.40;97.20;;;;;;1735293;28;20210;-64
2023/05/04 07:59:59;;;;;;;12.07;10.93;;;18.50;97.20;;;;;;1735156;28;20574;-65
2023/05/04 08:00:51;;;;;;;12.43;11.27;;;18.50;97.20;;;;;;1735112;28;20220;-65
2023/05/04 08:01:41;;;;;;;10.60;9.57;;;18.60;97.20;;;;;;1734744;28;20977;-64
2023/05/04 08:02:33;;;;;;;11.00;10.00;;;18.60;97.20;;;;;;1735118;28;20656;-65
2023/05/04 08:03:24;;;;;;;11.77;10.25;;;18.60;97.20;;;;;;1734942;28;20238;-66
2023/05/04 08:04:15;;;;;;;10.90;10.00;;;18.70;97.20;;;;;;1735084;28;20211;-65
2023/05/04 08:05:07;;;;;;;10.38;9.52;;;18.70;97.20;;;;;;1735078;28;20207;-64
2023/05/04 08:06:00;;;;;;;10.90;9.90;;;18.70;97.20;;;;;;1735075;28;20204;-64
2023/05/04 08:06:51;;;;;;;10.95;9.88;;;18.80;97.20;;;;;;1734669;28;20731;-64
2023/05/04 08:07:43;;;;;;;10.60;9.73;;;18.90;97.20;;;;;;1735191;28;20659;-64
2023/05/04 08:08:33;;;;;;;11.20;10.07;;;18.90;97.20;;;;;;1735124;28;20203;-64
2023/05/04 08:09:25;;;;;;;12.57;10.37;;;19.00;97.20;;;;;;1735038;28;20204;-64
2023/05/04 08:10:16;;;;;;;10.80;8.95;;;19.10;97.20;;;;;;1734946;28;20199;-64
2023/05/04 08:11:12;;;;;;;10.37;9.40;;;19.20;97.20;;;;;;1735065;28;20200;-64
2023/05/04 08:12:03;;;;;;;10.20;9.30;;;19.30;97.20;;;;;;1735209;28;20447;-64
2023/05/04 08:12:55;;;;;;;10.88;9.98;;;19.40;97.20;;;;;;1735087;28;20282;-64
2023/05/04 08:13:47;;;;;;;9.85;8.95;;;19.50;97.20;;;;;;1735089;28;20211;-64
2023/05/04 08:14:39;;;;;;;10.73;9.82;;;19.60;97.20;;;;;;1735060;28;20259;-64
2023/05/04 08:15:30;;;;;;;11.40;10.40;;;19.60;97.20;;;;;;1735039;28;20203;-64
2023/05/04 08:16:22;;;;;;;11.70;10.50;;;19.70;97.20;;;;;;1734856;28;20191;-64
2023/05/04 08:17:12;;;;;;;11.38;10.27;;;19.70;97.20;;;;;;1734664;28;20215;-66
2023/05/04 08:18:05;;;;;;;10.77;9.77;;;19.80;97.20;;;;;;1735084;28;20203;-64
2023/05/04 08:18:56;;;;;;;10.77;9.68;;;19.80;97.20;;;;;;1735133;28;20227;-64
2023/05/04 08:19:47;;;;;;;10.00;9.05;;;19.90;97.20;;;;;;1735021;28;20199;-66
2023/05/04 08:20:39;;;;;;;11.13;10.13;;;19.90;97.20;;;;;;1734920;28;20260;-67
2023/05/04 08:21:31;;;;;;;11.57;10.38;;;19.90;97.20;;;;;;1734899;28;20223;-64
2023/05/04 08:22:23;;;;;;;11.30;10.25;;;19.90;97.20;;;;;;1735092;28;20211;-64
2023/05/04 08:23:14;;;;;;;9.60;8.80;;;19.90;97.20;;;;;;1735109;28;20207;-67
2023/05/04 08:24:06;;;;;;;10.53;9.53;;;19.90;97.20;;;;;;1735055;28;20203;-66
2023/05/04 08:24:56;;;;;;;9.80;9.00;;;20.00;97.20;;;;;;1735058;28;20287;-64
2023/05/04 08:25:48;;;;;;;10.63;9.73;;;20.00;97.20;;;;;;1734947;28;20218;-64
2023/05/04 08:26:39;;;;;;;9.90;8.90;;;20.10;97.20;;;;;;1734608;28;20211;-65
2023/05/04 08:27:31;;;;;;;10.10;9.20;;;20.10;97.20;;;;;;1734962;28;20204;-64
2023/05/04 08:28:22;;;;;;;9.75;8.95;;;20.20;97.20;;;;;;1734955;28;20207;-64
2023/05/04 08:29:14;;;;;;;10.83;9.83;;;20.20;97.20;;;;;;1734965;28;20208;-65
2023/05/04 08:30:06;;;;;;;10.43;9.63;;;20.30;97.20;;;;;;1734994;28;20199;-67
2023/05/04 08:30:58;;;;;;;10.85;9.70;;;20.30;97.20;;;;;;1734907;28;20255;-66
2023/05/04 08:31:48;;;;;;;11.25;10.15;;;20.40;97.20;;;;;;1734880;28;20200;-67
2023/05/04 08:32:40;;;;;;;10.67;9.77;;;20.40;97.20;;;;;;1734524;28;20210;-65
2023/05/04 08:33:31;;;;;;;11.80;10.70;;;20.50;97.20;;;;;;1734908;28;20200;-64
2023/05/04 08:34:22;;;;;;;11.00;10.00;;;20.50;97.20;;;;;;1734987;28;20206;-63
2023/05/04 08:35:13;;;;;;;11.43;10.52;;;20.60;97.20;;;;;;1734654;28;20549;-64
2023/05/04 08:36:07;;;;;;;11.57;10.53;;;20.50;97.20;;;;;;1734961;28;20229;-64
2023/05/04 08:37:01;;;;;;;12.40;10.45;;;20.60;97.20;;;;;;1734443;28;20204;-65
2023/05/04 08:37:52;;;;;;;10.80;9.90;;;20.60;97.20;;;;;;1734863;28;20257;-65
2023/05/04 08:38:43;;;;;;;10.73;9.80;;;20.70;97.20;;;;;;1734926;28;20667;-65
2023/05/04 08:39:35;;;;;;;11.43;10.40;;;20.70;97.20;;;;;;1734897;28;20663;-65
2023/05/04 08:40:26;;;;;;;10.10;9.20;;;20.70;97.20;;;;;;1734715;28;20223;-64
2023/05/04 08:41:17;;;;;;;10.70;9.80;;;20.80;97.20;;;;;;1734848;28;20199;-64
2023/05/04 08:42:10;;;;;;;11.05;10.07;;;20.80;97.20;;;;;;1734913;28;20258;-65
2023/05/04 08:43:02;;;;;;;9.52;8.65;;;20.90;97.20;;;;;;1734790;28;20550;-64
2023/05/04 08:43:54;;;;;;;9.82;8.93;;;21.00;97.20;;;;;;1734865;28;20270;-65
2023/05/04 08:44:45;;;;;;;9.95;9.05;;;21.00;97.20;;;;;;1734859;28;20208;-64
2023/05/04 08:45:39;;;;;;;8.97;8.27;;;21.10;97.20;;;;;;1734859;28;20210;-65
2023/05/04 08:46:33;;;;;;;12.77;10.20;;;21.20;97.20;;;;;;1734560;28;20283;-66
2023/05/04 08:47:24;;;;;;;10.23;9.25;;;21.20;97.20;;;;;;1734775;28;20224;-65
2023/05/04 08:48:16;;;;;;;10.40;9.40;;;21.20;97.20;;;;;;1734889;28;20274;-67
2023/05/04 08:49:07;;;;;;;10.48;9.50;;;21.20;97.20;;;;;;1734722;28;20200;-64
2023/05/04 08:49:58;;;;;;;9.73;8.90;;;21.30;97.20;;;;;;1734829;28;20663;-65
2023/05/04 08:50:49;;;;;;;12.50;10.20;;;21.30;97.20;;;;;;1734710;28;20816;-64
2023/05/04 08:51:42;;;;;;;10.18;9.30;;;21.40;97.20;;;;;;1734865;28;20210;-64
2023/05/04 08:52:36;;;;;;;9.88;8.98;;;21.40;97.20;;;;;;1734794;28;20655;-64
2023/05/04 08:53:30;;;;;;;9.05;8.25;;;21.40;97.20;;;;;;1734752;28;20659;-64
2023/05/04 08:54:22;;;;;;;10.02;9.02;;;21.50;97.20;;;;;;1734856;28;20254;-64
2023/05/04 08:55:15;;;;;;;9.82;8.82;;;21.50;97.20;;;;;;1734747;28;20199;-65
2023/05/04 08:56:08;;;;;;;11.05;9.95;;;21.60;97.20;;;;;;1734842;28;20195;-65
2023/05/04 08:57:02;;;;;;;10.48;9.43;;;21.60;97.20;;;;;;1734469;28;20223;-65
2023/05/04 08:57:53;;;;;;;10.80;8.88;;;21.70;97.20;;;;;;1734782;28;20235;-65
2023/05/04 08:58:49;;;;;;;9.52;8.73;;;21.70;97.20;;;;;;1734807;28;20729;-65
2023/05/04 08:59:42;;;;;;;10.23;9.27;;;21.80;97.20;;;;;;1734889;28;20206;-65
2023/05/04 09:00:35;;;;;;;10.40;9.50;;;21.90;97.20;;;;;;1734634;28;20227;-65
2023/05/04 09:01:27;;;;;;;10.02;9.07;;;21.90;97.20;;;;;;1734706;28;20196;-64
2023/05/04 09:02:20;;;;;;;9.75;8.85;;;22.00;97.20;;;;;;1734789;28;20200;-65
2023/05/04 09:03:13;;;;;;;10.07;9.00;;;22.00;97.20;;;;;;1734729;28;20207;-65
2023/05/04 09:04:04;;;;;;;10.23;9.30;;;22.10;97.20;;;;;;1734840;28;20195;-65
2023/05/04 09:04:56;;;;;;;10.38;9.38;;;22.10;97.20;;;;;;1734724;28;20200;-64
2023/05/04 09:05:49;;;;;;;9.55;8.75;;;22.20;97.20;;;;;;1734421;28;20203;-65
2023/05/04 09:06:41;;;;;;;10.02;9.13;;;22.20;97.20;;;;;;1734494;28;20403;-65
2023/05/04 09:07:33;;;;;;;9.57;8.57;;;22.30;97.20;;;;;;1734669;28;20588;-65
2023/05/04 09:08:26;;;;;;;9.52;8.60;;;22.30;97.20;;;;;;1734806;28;20559;-65
2023/05/04 09:09:17;;;;;;;10.10;9.30;;;22.40;97.20;;;;;;1734649;28;20211;-66
2023/05/04 09:10:09;;;;;;;10.10;9.18;;;22.40;97.20;;;;;;1734678;28;20204;-66
2023/05/04 09:11:01;;;;;;;9.30;8.50;;;22.40;97.20;;;;;;1734684;28;20206;-65
2023/05/04 09:11:52;;;;;;;8.77;8.07;;;22.40;97.20;;;;;;1734718;28;20203;-65
2023/05/04 09:12:43;;;;;;;8.97;8.07;;;22.50;97.20;;;;;;1734756;28;20196;-65
2023/05/04 09:13:35;;;;;;;8.45;7.75;;;22.60;97.20;;;;;;1734823;28;20204;-65
2023/05/04 09:14:33;;;;;;;9.50;8.65;;;22.60;97.20;;;;;;1734592;28;20203;-64
2023/05/04 09:15:24;;;;;;;9.63;8.80;;;22.70;97.20;;;;;;1734795;28;20297;-65
2023/05/04 09:16:15;;;;;;;8.23;7.43;;;22.70;97.20;;;;;;1734329;28;20203;-66
2023/05/04 09:17:13;;;;;;;9.45;8.30;;;22.80;97.20;;;;;;1734630;28;20208;-67
2023/05/04 09:18:06;;;;;;;8.68;7.97;;;22.90;97.20;;;;;;1734676;28;20204;-65
2023/05/04 09:18:56;;;;;;;9.50;8.70;;;22.90;97.20;;;;;;1734686;28;20717;-65
2023/05/04 09:19:57;;;;;;;11.53;10.43;;;23.00;97.20;;;;;;1734663;28;20235;-64
2023/05/04 09:20:48;;;;;;;10.13;9.18;;;23.10;97.20;;;;;;1734560;28;20610;-64
2023/05/04 09:21:39;;;;;;;9.40;8.60;;;23.20;97.20;;;;;;1734212;28;20192;-65
2023/05/04 09:22:30;;;;;;;8.77;8.00;;;23.20;97.20;;;;;;1734565;28;20435;-64
2023/05/04 09:23:22;;;;;;;8.97;8.23;;;23.30;97.20;;;;;;1734723;28;20192;-65